09 Apr 2020 03:33 UTC 2020100+03:33 UTC

Overview Datums Bench Marks Data Query Site Visit Daily QC Messages Attributes

042: Nueces Delta 2

27° 53' 19" N   97° 34' 10" W
NUDE2
The Coastal Bend Bays & Estuaries Program Coastal Bend Bays and Estuaries Program

Station Information

Nueces Delta 2
Nueces Delta 2
more pictures
 
Station Name:Nueces Delta 2
DNR ID:042
Location:27° 53' 19" N, 97° 34' 10" W

Water Level Forecasts

Latest Observations

Series Metric English Marine Observed at
Water Temperature 28.2 °C 82.8 °F 82.8 °F Apr 08 22:24 CDT
00h07m ago
Salinity 33.800 psu 33.800 psu 33.800 psu Apr 08 22:24 CDT
00h07m ago

Maps

Nueces Delta 2
All Stations in Area
Entire Network
 

Recent Observations

Date/Time Water
Temp (°F)
Sal (psu)
Apr 08 22:00 CDT 82.9 33.700
Apr 08 21:00 CDT 84.0 33.700
Apr 08 20:00 CDT 85.1 33.800
Apr 08 19:00 CDT 86.4 33.800
Apr 08 18:00 CDT 87.3 33.600
Apr 08 17:00 CDT 88.0 33.700
Apr 08 16:00 CDT 88.2 33.800
Apr 08 15:00 CDT 86.9 33.900
Apr 08 14:00 CDT 84.2 34.000
Apr 08 13:00 CDT 81.5 34.000
Apr 08 12:00 CDT 79.5 34.100
Apr 08 11:00 CDT 78.1 28.500
Apr 08 10:00 CDT 77.5 28.400
Apr 08 09:00 CDT 77.0 28.200
Apr 08 08:00 CDT 77.0 28.000
Apr 08 07:00 CDT 77.2 28.200
Apr 08 06:00 CDT 77.4 28.500
Apr 08 05:00 CDT 77.4 28.300
Apr 08 04:00 CDT 77.5 28.600
Apr 08 03:00 CDT 78.1 28.500
Apr 08 02:00 CDT 78.6 28.800
Apr 08 01:00 CDT 79.2 28.800
Apr 08 00:00 CDT 80.2 28.700
Apr 07 23:00 CDT 80.6 28.400
Apr 07 22:00 CDT 80.6 28.800

Historical Data Availability